Map

Track Data

SID SEASON NUMBER BASIN SUBBASIN NAME ISO_TIME NATURE LAT LON WMO_WIND WMO_PRES WMO_AGENCY TRACK_TYPE DIST2LAND LANDFALL IFLAG USA_AGENCY USA_ATCF_ID USA_LAT USA_LON USA_RECORD USA_STATUS USA_WIND USA_PRES USA_SSHS USA_R34_NE USA_R34_SE USA_R34_SW USA_R34_NW USA_R50_NE USA_R50_SE USA_R50_SW USA_R50_NW USA_R64_NE USA_R64_SE USA_R64_SW USA_R64_NW USA_POCI USA_ROCI USA_RMW USA_EYE TOKYO_LAT TOKYO_LON TOKYO_GRADE TOKYO_WIND TOKYO_PRES TOKYO_R50_DIR TOKYO_R50_LONG TOKYO_R50_SHORT TOKYO_R30_DIR TOKYO_R30_LONG TOKYO_R30_SHORT TOKYO_LAND CMA_LAT CMA_LON CMA_CAT CMA_WIND CMA_PRES HKO_LAT HKO_LON HKO_CAT HKO_WIND HKO_PRES NEWDELHI_LAT NEWDELHI_LON NEWDELHI_GRADE NEWDELHI_WIND NEWDELHI_PRES NEWDELHI_CI NEWDELHI_DP NEWDELHI_POCI REUNION_LAT REUNION_LON REUNION_TYPE REUNION_WIND REUNION_PRES REUNION_TNUM REUNION_CI REUNION_RMW REUNION_R34_NE REUNION_R34_SE REUNION_R34_SW REUNION_R34_NW REUNION_R50_NE REUNION_R50_SE REUNION_R50_SW REUNION_R50_NW REUNION_R64_NE REUNION_R64_SE REUNION_R64_SW REUNION_R64_NW BOM_LAT BOM_LON BOM_TYPE BOM_WIND BOM_PRES BOM_TNUM BOM_CI BOM_RMW BOM_R34_NE BOM_R34_SE BOM_R34_SW BOM_R34_NW BOM_R50_NE BOM_R50_SE BOM_R50_SW BOM_R50_NW BOM_R64_NE BOM_R64_SE BOM_R64_SW BOM_R64_NW BOM_ROCI BOM_POCI BOM_EYE BOM_POS_METHOD BOM_PRES_METHOD NADI_LAT NADI_LON NADI_CAT NADI_WIND NADI_PRES WELLINGTON_LAT WELLINGTON_LON WELLINGTON_WIND WELLINGTON_PRES DS824_LAT DS824_LON DS824_STAGE DS824_WIND DS824_PRES TD9636_LAT TD9636_LON TD9636_STAGE TD9636_WIND TD9636_PRES TD9635_LAT TD9635_LON TD9635_WIND TD9635_PRES TD9635_ROCI NEUMANN_LAT NEUMANN_LON NEUMANN_CLASS NEUMANN_WIND NEUMANN_PRES MLC_LAT MLC_LON MLC_CLASS MLC_WIND MLC_PRES USA_GUST BOM_GUST BOM_GUST_PER REUNION_GUST REUNION_GUST_PER USA_SEAHGT USA_SEARAD_NE USA_SEARAD_SE USA_SEARAD_SW USA_SEARAD_NW STORM_SPEED STORM_DIR
1986311N12072 1986 108 NI AS NOT_NAMED 1986-11-07 00:00:00 NR 12.1000 72.1000 main 303 272 __________O___ -1 12.1000 72.1000 0 6 99
1986311N12072 1986 108 NI AS NOT_NAMED 1986-11-07 03:00:00 NR 12.0504 72.4065 main 272 245 __________P___ -1 12.0504 72.4065 0 6 97
1986311N12072 1986 108 NI AS NOT_NAMED 1986-11-07 06:00:00 NR 12.0305 72.7004 main 245 210 __________P___ -1 12.0305 72.7004 0 6 88
1986311N12072 1986 108 NI AS NOT_NAMED 1986-11-07 09:00:00 NR 12.0703 72.9690 main 210 186 __________P___ -1 12.0703 72.9690 0 5 71
1986311N12072 1986 108 NI AS NOT_NAMED 1986-11-07 12:00:00 NR 12.2000 73.2000 main 186 158 __________O___ -1 12.2000 73.2000 0 5 48
1986311N12072 1986 108 NI AS NOT_NAMED 1986-11-07 15:00:00 NR 12.4338 73.3795 main 158 141 __________P___ -1 12.4338 73.3795 0 6 28
1986311N12072 1986 108 NI AS NOT_NAMED 1986-11-07 18:00:00 NR 12.7220 73.4874 main 141 134 __________P___ -1 12.7220 73.4874 0 6 12
1986311N12072 1986 108 NI AS NOT_NAMED 1986-11-07 21:00:00 NR 12.9993 73.5016 main 134 131 __________P___ -1 12.9993 73.5016 0 5 349
1986311N12072 1986 108 NI AS NOT_NAMED 1986-11-08 00:00:00 NR 13.2000 73.4000 main 141 141 __________O___ -1 13.2000 73.4000 1 4 308
1986311N12072 1986 108 NI AS NOT_NAMED 1986-11-08 03:00:00 NR 13.2569 73.1570 main 162 162 __________P___ -1 13.2569 73.1570 1 6 273
1986311N12072 1986 108 NI AS NOT_NAMED 1986-11-08 06:00:00 NR 13.2280 72.8050 main 206 206 __________P___ -1 13.2280 72.8050 1 7 261
1986311N12072 1986 108 NI AS NOT_NAMED 1986-11-08 09:00:00 NR 13.1350 72.4006 main 250 250 __________P___ -1 13.1350 72.4006 1 8 254
1986311N12072 1986 108 NI AS NOT_NAMED 1986-11-08 12:00:00 NR 13.0000 72.0000 main 294 294 __________O___ -1 13.0000 72.0000 1 7 246
1986311N12072 1986 108 NI AS NOT_NAMED 1986-11-08 15:00:00 NR 12.8479 71.7465 main 329 329 __________P___ -1 12.8479 71.7465 1 6 235
1986311N12072 1986 108 NI AS NOT_NAMED 1986-11-08 18:00:00 NR 12.6637 71.4975 main 353 353 __________P___ -1 12.6637 71.4975 1 7 235
1986311N12072 1986 108 NI AS NOT_NAMED 1986-11-08 21:00:00 NR 12.4727 71.1997 main 390 390 __________P___ -1 12.4727 71.1997 1 8 242
1986311N12072 1986 108 NI AS NOT_NAMED 1986-11-09 00:00:00 NR 12.3000 70.8000 main 437 437 __________O___ -1 12.3000 70.8000 1 10 252
1986311N12072 1986 108 NI AS NOT_NAMED 1986-11-09 03:00:00 NR 12.1589 70.2163 main 503 503 __________P___ -1 12.1589 70.2163 1 12 257
1986311N12072 1986 108 NI AS NOT_NAMED 1986-11-09 06:00:00 NR 12.0329 69.6056 main 572 572 O_________P___ jtwc_io IO031986 12.0000 69.9000 35 0 12.0411 69.5320 1 12 259
1986311N12072 1986 108 NI AS NOT_NAMED 1986-11-09 09:00:00 NR 11.9259 69.0011 main 638 638 P_________P___ IO031986 11.8725 69.3898 37 0 11.9526 68.8068 1 12 262
1986311N12072 1986 108 NI AS NOT_NAMED 1986-11-09 12:00:00 NR 11.8571 68.4000 main 694 694 O_________O___ jtwc_io IO031986 11.8000 68.8000 40 0 11.9000 68.1000 2 40 12 266
1986311N12072 1986 108 NI AS NOT_NAMED 1986-11-09 15:00:00 NR 11.8458 67.8064 main 756 756 P_________P___ IO031986 11.8200 68.0801 42 0 11.8716 67.5328 2 41 12 272
1986311N12072 1986 108 NI AS NOT_NAMED 1986-11-09 18:00:00 NR 11.8904 67.1437 main 818 818 O_________P___ jtwc_io IO031986 11.9000 67.3000 45 0 11.8807 66.9873 2 42 13 275
1986311N12072 1986 108 NI AS NOT_NAMED 1986-11-09 21:00:00 NR 11.9546 66.4978 main 872 872 P_________P___ IO031986 11.9846 66.5724 45 0 11.9246 66.4232 2 43 13 277
1986311N12072 1986 108 NI AS NOT_NAMED 1986-11-10 00:00:00 NR 12.0500 65.8000 main 937 937 O_________O___ jtwc_io IO031986 12.1000 65.8000 45 0 12.0000 65.8000 2 45 15 279
1986311N12072 1986 108 NI AS NOT_NAMED 1986-11-10 03:00:00 NR 12.1846 65.0103 main 1013 1013 P_________P___ IO031986 12.2575 64.9152 42 0 12.1117 65.1055 2 42 16 280
1986311N12072 1986 108 NI AS NOT_NAMED 1986-11-10 06:00:00 NR 12.3243 64.1714 main 1015 951 O_________P___ jtwc_io IO031986 12.4000 64.0000 40 0 12.2487 64.3427 2 40 17 278
1986311N12072 1986 108 NI AS NOT_NAMED 1986-11-10 09:00:00 NR 12.4217 63.3329 main 944 868 P_________P___ IO031986 12.4570 63.1572 37 0 12.3863 63.5086 2 37 17 276
1986311N12072 1986 108 NI AS NOT_NAMED 1986-11-10 12:00:00 NR 12.5000 62.4500 main 868 760 O_________O___ jtwc_io IO031986 12.5000 62.3000 35 0 12.5000 62.6000 1 35 18 274
1986311N12072 1986 108 NI AS NOT_NAMED 1986-11-10 15:00:00 NR 12.5484 61.4857 main 760 651 P_________P___ IO031986 12.6072 61.3801 32 -1 12.4895 61.5912 1 32 19 272
1986311N12072 1986 108 NI AS NOT_NAMED 1986-11-10 18:00:00 NR 12.5806 60.4595 main 651 542 O_________P___ jtwc_io IO031986 12.7000 60.4000 30 -1 12.4612 60.5190 1 30 20 271
1986311N12072 1986 108 NI AS NOT_NAMED 1986-11-10 21:00:00 NR 12.5884 59.4011 main 532 423 P_________P___ IO031986 12.6998 59.3646 27 -1 12.4770 59.4376 1 27 21 272
1986311N12072 1986 108 NI AS NOT_NAMED 1986-11-11 00:00:00 NR 12.6429 58.3571 main 423 315 O_________O___ jtwc_io IO031986 12.7000 58.3000 25 -1 12.6000 58.4000 1 25 20 277
1986311N12072 1986 108 NI AS NOT_NAMED 1986-11-11 03:00:00 NR 12.8427 57.3787 main 315 227 P_________P___ IO031986 12.7757 57.2455 22 -1 12.8761 57.4453 1 23 19 286
1986311N12072 1986 108 NI AS NOT_NAMED 1986-11-11 06:00:00 NR 13.1853 56.4703 main 227 187 O_________P___ jtwc_io IO031986 12.9000 56.2000 20 -1 13.2804 56.5604 1 22 19 300
1986311N12072 1986 108 NI AS NOT_NAMED 1986-11-11 09:00:00 NR 13.7696 55.7201 main 186 179 __________P___ IO031986 -1 13.7696 55.7201 1 21 19 306
1986311N12072 1986 108 NI AS NOT_NAMED 1986-11-11 12:00:00 NR 14.3000 54.9000 main 195 __________O___ -1 14.3000 54.9000 1 20 19 304

About IBTrACS Database

This database is a web-friendly format of International Best Track Archive for Climate Stewardship (IBTrACS), a global best track data archive curated by NOAA dating back to 1842.

Updated: 2021-11-26